createdAt,value
2018-07-05T04:13:02.670Z,66.2
2018-07-05T04:13:22.838Z,65.8
2018-07-05T04:13:42.997Z,65.8
2018-07-05T04:14:03.167Z,65.9
2018-07-05T04:14:23.349Z,65.5
2018-07-05T04:14:43.511Z,65.5
2018-07-05T04:15:03.729Z,65.5
2018-07-05T04:15:23.920Z,65.5
2018-07-05T04:15:44.117Z,65.7
2018-07-05T04:16:04.332Z,65.6
2018-07-05T04:16:24.524Z,65.6
2018-07-05T04:16:44.678Z,65.4
2018-07-05T04:17:04.836Z,65.5
2018-07-05T04:17:25.021Z,65.9
2018-07-05T04:17:45.279Z,66
2018-07-05T04:20:26.562Z,67
2018-07-05T04:20:46.779Z,67.2
2018-07-05T04:21:06.974Z,67
2018-07-05T04:21:27.196Z,66.9
2018-07-05T04:21:47.352Z,66.5
2018-07-05T04:22:07.554Z,66.7
2018-07-05T04:22:27.792Z,66.4
2018-07-05T04:22:48.005Z,66.9
2018-07-05T04:32:31.145Z,68.1
2018-07-05T04:34:10.256Z,68.4
2018-07-05T04:34:30.502Z,67.9
2018-07-05T04:36:06.808Z,67.6
2018-07-05T04:38:04.835Z,67.3
2018-07-05T04:38:25.022Z,66.7
2018-07-05T04:40:25.544Z,67
2018-07-05T04:40:45.693Z,66.3
2018-07-05T04:41:05.849Z,66.5
2018-07-05T04:41:26.044Z,66.4
2018-07-05T04:41:46.248Z,66.5
2018-07-05T04:42:06.400Z,66.5
2018-07-05T04:42:26.568Z,66.5
2018-07-05T04:42:46.756Z,66
2018-07-05T04:43:06.996Z,66.4
2018-07-05T04:43:27.190Z,66
2018-07-05T04:43:47.367Z,65.8
2018-07-05T04:44:07.542Z,65.9
2018-07-05T04:44:27.736Z,65.6
2018-07-05T04:44:47.954Z,65.9
2018-07-05T04:45:08.143Z,66.1
2018-07-05T04:45:28.370Z,66.1
2018-07-05T04:45:48.542Z,66.1
2018-07-05T04:46:08.715Z,66.8
2018-07-05T04:46:28.917Z,66.5
2018-07-05T04:46:49.124Z,66.3
2018-07-05T04:47:09.299Z,67.1
2018-07-05T04:47:29.451Z,66.7
2018-07-05T04:47:49.756Z,66.3
2018-07-05T04:48:10.073Z,66.8
2018-07-05T04:48:30.276Z,66.5
2018-07-05T04:48:50.493Z,66.3
2018-07-05T04:49:10.754Z,66.2
2018-07-05T04:49:30.946Z,66.3
2018-07-05T04:49:51.123Z,66.3
2018-07-05T04:50:11.266Z,67.1
2018-07-05T04:50:31.494Z,66.5
2018-07-05T04:50:51.735Z,66.6
2018-07-05T04:51:11.875Z,66.4
2018-07-05T04:51:32.036Z,66.5
2018-07-05T04:51:52.229Z,66.5
2018-07-05T04:52:12.414Z,66.3
2018-07-05T04:52:32.638Z,65.8
2018-07-05T04:52:52.835Z,66.3
2018-07-05T04:53:13.004Z,66.4
2018-07-05T04:53:33.169Z,66.4
2018-07-05T04:53:53.344Z,66.7
2018-07-05T04:54:13.569Z,67.5
2018-07-05T04:54:33.754Z,67.3
2018-07-05T04:54:54.038Z,67.7
2018-07-05T04:55:14.232Z,67
2018-07-05T04:55:34.548Z,66.7
2018-07-05T04:55:54.671Z,66.4
2018-07-05T04:56:14.851Z,66.5
2018-07-05T04:56:35.114Z,66.1
2018-07-05T04:56:55.356Z,65.9
2018-07-05T04:57:15.521Z,66.1
2018-07-05T04:57:35.716Z,65.8
2018-07-05T04:57:55.917Z,66.1
2018-07-05T04:58:16.109Z,66.1
2018-07-05T04:58:36.303Z,66.1
2018-07-05T04:58:56.449Z,66
2018-07-05T04:59:16.718Z,66.2
2018-07-05T04:59:36.903Z,66.1
2018-07-05T04:59:57.077Z,65.9
2018-07-05T05:00:17.263Z,65.8
2018-07-05T05:00:37.441Z,66
2018-07-05T05:00:57.660Z,66.1
2018-07-05T05:01:17.894Z,66.2
2018-07-05T05:01:38.068Z,66.2
2018-07-05T05:01:58.298Z,66
2018-07-05T05:02:18.534Z,65.9
2018-07-05T05:02:38.840Z,65.9
2018-07-05T05:02:59.005Z,65.8
2018-07-05T05:03:19.201Z,65.8
2018-07-05T05:03:39.446Z,66
2018-07-05T05:03:59.672Z,66
2018-07-05T05:04:19.896Z,66.3
2018-07-05T05:04:40.040Z,65.9
2018-07-05T05:05:00.217Z,66
2018-07-05T05:05:20.410Z,66.1
2018-07-05T05:05:40.577Z,66.1
2018-07-05T05:06:00.792Z,65.8
2018-07-05T05:06:20.945Z,66.3
2018-07-05T05:06:41.127Z,66
2018-07-05T05:07:01.391Z,66.3
2018-07-05T05:07:21.570Z,65.9
2018-07-05T05:07:41.743Z,66.1
2018-07-05T05:11:12.319Z,66.2
2018-07-05T05:11:32.455Z,66.1
2018-07-05T05:11:52.652Z,66.1
2018-07-05T05:12:12.849Z,65.9
2018-07-05T05:12:33.089Z,65.8
2018-07-05T05:12:53.312Z,65.5
2018-07-05T05:13:13.596Z,65.6
2018-07-05T05:13:33.791Z,65.6
2018-07-05T05:13:53.999Z,65.8
2018-07-05T05:14:14.222Z,65.7
2018-07-05T05:14:34.417Z,65
2018-07-05T05:14:54.708Z,65.3
2018-07-05T05:15:15.042Z,65
2018-07-05T05:15:35.219Z,65.2
2018-07-05T05:15:55.428Z,65.5
2018-07-05T05:16:15.561Z,65.5
2018-07-05T05:16:35.780Z,65.9
2018-07-05T05:16:56.019Z,65.1
2018-07-05T05:17:16.251Z,65.4
2018-07-05T05:17:36.473Z,65
2018-07-05T05:17:56.619Z,65.1
2018-07-05T05:18:16.845Z,64.9
2018-07-05T05:18:37.068Z,65.3
2018-07-05T05:18:57.367Z,65.2
2018-07-05T05:19:17.576Z,65.8
2018-07-05T05:19:37.802Z,65.8
2018-07-05T05:19:57.951Z,65.8
2018-07-05T05:21:39.112Z,65.8
2018-07-05T05:21:59.279Z,65.1
2018-07-05T05:23:49.029Z,65
2018-07-05T05:24:09.246Z,65.3
2018-07-05T05:24:29.368Z,65.1
2018-07-05T05:24:49.534Z,65.3
2018-07-05T05:25:09.705Z,65.5
2018-07-05T05:25:29.867Z,65
2018-07-05T05:25:50.049Z,64.9
2018-07-05T05:26:10.280Z,65.4
2018-07-05T05:26:30.448Z,65.5
2018-07-05T05:26:50.652Z,64.9
2018-07-05T05:27:10.824Z,65.3
2018-07-05T05:27:30.989Z,65.1
2018-07-05T05:27:51.136Z,64.9
2018-07-05T05:28:11.318Z,65.1
2018-07-05T05:28:31.580Z,65.9
2018-07-05T05:28:51.805Z,65.7
2018-07-05T05:30:31.825Z,65.5
2018-07-05T05:30:51.975Z,64.9
2018-07-05T05:31:52.286Z,65.2
2018-07-05T05:32:47.911Z,65
2018-07-05T05:33:08.170Z,64.5
2018-07-05T05:33:28.332Z,63.6
2018-07-05T05:34:39.347Z,63.7
2018-07-05T05:34:59.566Z,64
2018-07-05T05:35:19.737Z,63.5
2018-07-05T05:35:39.966Z,63.3
2018-07-05T05:36:00.215Z,63.4
2018-07-05T05:36:20.428Z,64.1
2018-07-05T05:36:40.594Z,63.6
2018-07-05T05:37:00.818Z,63.7
2018-07-05T05:37:20.992Z,63.8
2018-07-05T05:37:41.188Z,63.8
2018-07-05T05:38:01.369Z,63.6
2018-07-05T05:38:21.515Z,63.4
2018-07-05T05:38:41.695Z,64
2018-07-05T05:39:01.993Z,63.9
2018-07-05T05:39:22.226Z,63.8
2018-07-05T05:39:42.380Z,64.3
2018-07-05T05:40:02.543Z,64.4
2018-07-05T05:40:22.713Z,64.4
2018-07-05T05:40:42.875Z,65
2018-07-05T05:41:03.052Z,65.2
2018-07-05T05:41:23.233Z,65.9
2018-07-05T05:41:43.397Z,65.5
2018-07-05T05:42:03.581Z,65.3
2018-07-05T05:42:23.744Z,65.6
2018-07-05T05:42:43.916Z,65.5
2018-07-05T05:43:04.087Z,65.8
2018-07-05T05:43:24.249Z,65.6
2018-07-05T05:43:44.420Z,65.2
2018-07-05T05:44:04.556Z,64.8
2018-07-05T05:44:24.716Z,64.8
2018-07-05T05:44:44.916Z,64.2
2018-07-05T05:45:05.055Z,63.7
2018-07-05T05:45:25.218Z,63.5
2018-07-05T05:45:45.442Z,63.9
2018-07-05T05:46:05.614Z,64.4
2018-07-05T05:46:25.802Z,64.9
2018-07-05T05:46:45.958Z,64.5
2018-07-05T05:47:06.125Z,64.5
2018-07-05T05:47:26.310Z,64.3
2018-07-05T05:47:46.563Z,64.2
2018-07-05T05:48:06.660Z,64.4
2018-07-05T05:48:26.952Z,64.4
2018-07-05T05:48:47.129Z,64.9
2018-07-05T05:49:07.285Z,64.9
2018-07-05T05:49:27.456Z,65.1
2018-07-05T05:49:47.684Z,64.8
2018-07-05T05:50:07.847Z,65.1
2018-07-05T05:50:28.064Z,64.5
2018-07-05T05:50:48.221Z,64.4
2018-07-05T05:51:08.397Z,65.3
2018-07-05T05:51:28.560Z,65.1
2018-07-05T05:51:48.768Z,64.9
2018-07-05T05:52:08.939Z,64.9
2018-07-05T05:52:29.160Z,64.9
2018-07-05T05:52:49.303Z,64.4
2018-07-05T05:53:09.470Z,64.6
2018-07-05T05:53:29.655Z,63.9
2018-07-05T05:53:49.841Z,63.8
2018-07-05T05:54:09.999Z,63.7
2018-07-05T05:54:30.150Z,63.8
2018-07-05T05:54:50.419Z,63.4
2018-07-05T05:55:10.578Z,62.8
2018-07-05T05:55:30.748Z,62.7
2018-07-05T05:55:51.024Z,63
2018-07-05T05:56:11.165Z,62.7
2018-07-05T05:56:31.325Z,63.3
2018-07-05T05:56:51.496Z,63.3
2018-07-05T05:57:11.743Z,62.8
2018-07-05T05:57:31.897Z,62.6
2018-07-05T05:57:52.057Z,61.9
2018-07-05T05:58:12.256Z,62.2
2018-07-05T05:58:32.401Z,62.1
2018-07-05T05:58:52.588Z,61.9
2018-07-05T05:59:12.787Z,62.1
2018-07-05T05:59:32.943Z,62.4
2018-07-05T05:59:53.104Z,62.3
2018-07-05T06:00:13.299Z,63.3
2018-07-05T06:00:33.454Z,61
2018-07-05T06:00:53.648Z,60.2
2018-07-05T06:01:13.826Z,60.3
2018-07-05T06:01:34.021Z,60.4
2018-07-05T06:01:54.364Z,61.1
2018-07-05T06:02:14.430Z,61.4
2018-07-05T06:02:34.645Z,61.2
2018-07-05T06:02:54.823Z,61.2
2018-07-05T06:03:14.998Z,61.5
2018-07-05T06:03:35.213Z,61.1
2018-07-05T06:03:55.366Z,61.2
2018-07-05T06:04:15.533Z,61
2018-07-05T06:04:35.696Z,60.8
2018-07-05T06:04:55.859Z,61.1
2018-07-05T06:05:16.034Z,61.2
2018-07-05T06:05:36.203Z,60.2
2018-07-05T06:05:56.371Z,60.1
2018-07-05T06:06:16.531Z,60
2018-07-05T06:06:36.701Z,60.1
2018-07-05T06:06:56.825Z,60.3
2018-07-05T06:07:16.973Z,60.4
2018-07-05T06:07:37.140Z,60.3
2018-07-05T06:07:57.317Z,60.4
2018-07-05T06:08:17.472Z,60.6
2018-07-05T06:08:37.647Z,60
2018-07-05T06:08:57.793Z,60.3
2018-07-05T06:09:17.971Z,60.8
2018-07-05T06:09:38.124Z,60.3
2018-07-05T06:09:58.276Z,60.2
2018-07-05T06:10:18.462Z,59.8
2018-07-05T06:10:38.615Z,59.9
2018-07-05T06:10:58.771Z,59.9
2018-07-05T06:11:18.926Z,59.5
2018-07-05T06:11:39.079Z,60.4
2018-07-05T06:11:59.280Z,60.5
2018-07-05T06:12:19.419Z,60.1
2018-07-05T06:12:39.579Z,60.4
2018-07-05T06:12:59.742Z,60.2
2018-07-05T06:13:19.906Z,60.3
2018-07-05T06:13:40.067Z,60.2
2018-07-05T06:14:00.205Z,60.3
2018-07-05T06:14:20.376Z,60
2018-07-05T06:14:40.581Z,60.5
2018-07-05T06:15:00.722Z,60.4
2018-07-05T06:15:20.920Z,59.8
2018-07-05T06:15:41.029Z,60.2
2018-07-05T06:16:01.187Z,60
2018-07-05T06:16:21.345Z,60.2
2018-07-05T06:16:41.513Z,60.4
2018-07-05T06:17:01.719Z,60.5
2018-07-05T06:17:21.874Z,60.2
2018-07-05T06:17:42.026Z,60.4
2018-07-05T06:18:02.228Z,59.6
2018-07-05T06:18:22.396Z,60
2018-07-05T06:18:42.617Z,59.6
2018-07-05T06:19:02.708Z,59.6
2018-07-05T06:19:22.867Z,59.3
2018-07-05T06:19:43.020Z,59
2018-07-05T06:20:03.197Z,59.2
2018-07-05T06:20:23.450Z,59.2
2018-07-05T06:20:43.690Z,59.4
2018-07-05T06:21:03.867Z,59.3
2018-07-05T06:21:24.136Z,58.7
2018-07-05T06:21:44.309Z,58.6
2018-07-05T06:22:04.515Z,58.8
2018-07-05T06:22:24.680Z,59.3
2018-07-05T06:22:44.881Z,59.3
2018-07-05T06:23:05.081Z,59.3
2018-07-05T06:23:25.288Z,60
2018-07-05T06:23:45.478Z,59.9
2018-07-05T06:24:05.627Z,59.7
2018-07-05T06:24:25.838Z,59.6
2018-07-05T06:24:46.052Z,60
2018-07-05T06:25:06.289Z,60.4
2018-07-05T06:25:26.555Z,60.4
2018-07-05T06:25:46.906Z,60.2
2018-07-05T06:26:07.096Z,59.7
2018-07-05T06:26:27.288Z,59.3
2018-07-05T06:26:47.477Z,59
2018-07-05T06:27:07.692Z,59
2018-07-05T06:27:27.933Z,59.5
2018-07-05T06:27:48.157Z,59.4
2018-07-05T06:28:08.318Z,60.1
2018-07-05T06:28:28.494Z,59.8
2018-07-05T06:28:48.706Z,60.4
2018-07-05T06:29:08.878Z,60
2018-07-05T06:29:29.062Z,59.5
2018-07-05T06:29:49.292Z,59.1
2018-07-05T06:30:09.498Z,59.7
2018-07-05T06:30:29.687Z,59.4
2018-07-05T06:30:49.839Z,60.2
2018-07-05T06:31:10.019Z,59.3
2018-07-05T06:31:30.305Z,59.8
2018-07-05T06:31:50.577Z,59
2018-07-05T06:32:10.825Z,59.3
2018-07-05T06:32:31.205Z,58.8
2018-07-05T06:32:51.437Z,59.7
2018-07-05T06:33:11.622Z,59.6
2018-07-05T06:33:31.786Z,60
2018-07-05T06:33:52.107Z,59.5
2018-07-05T06:34:12.311Z,59.4
2018-07-05T06:34:32.492Z,59.9
2018-07-05T06:34:52.630Z,59.3
2018-07-05T06:35:12.836Z,59.1
2018-07-05T06:35:33.062Z,58.7
2018-07-05T06:35:53.229Z,58.7
2018-07-05T06:36:13.377Z,58.8
2018-07-05T06:36:33.581Z,58.8
2018-07-05T06:36:53.710Z,58.8
2018-07-05T06:37:13.966Z,58.8
2018-07-05T06:37:34.165Z,58.8
2018-07-05T06:37:54.377Z,58.6
2018-07-05T06:38:14.570Z,58.8
2018-07-05T06:38:34.722Z,58.8
2018-07-05T06:38:54.957Z,59.2
2018-07-05T06:39:15.450Z,59.3
2018-07-05T06:39:35.684Z,58.1
2018-07-05T06:39:55.907Z,58
2018-07-05T06:40:16.084Z,57.3
2018-07-05T06:40:36.238Z,57.8
2018-07-05T06:40:56.446Z,57.9
2018-07-05T06:41:16.620Z,58.1
2018-07-05T06:41:36.787Z,57.9
2018-07-05T06:41:56.951Z,57.1
2018-07-05T06:42:17.130Z,57.5
2018-07-05T06:42:37.285Z,58
2018-07-05T06:42:57.433Z,58
2018-07-05T06:43:17.587Z,57.8
2018-07-05T06:43:37.716Z,57.8
2018-07-05T06:43:58.358Z,57.5
2018-07-05T06:44:18.539Z,57.1
2018-07-05T06:44:38.679Z,56.9
2018-07-05T06:44:58.835Z,56.9
2018-07-05T06:45:19.023Z,57.1
2018-07-05T06:45:39.188Z,56.9
2018-07-05T06:45:59.319Z,56.6
2018-07-05T06:46:19.488Z,56.8
2018-07-05T06:46:39.673Z,56.6
2018-07-05T06:46:59.872Z,57.2
2018-07-05T06:47:20.043Z,57.3
2018-07-05T06:47:40.496Z,56.8
2018-07-05T06:48:00.665Z,56.8
2018-07-05T06:48:20.818Z,56.8
2018-07-05T06:48:41.009Z,57.4
2018-07-05T06:49:01.176Z,58.3
2018-07-05T06:49:21.401Z,58.1
2018-07-05T06:49:41.526Z,57.8
2018-07-05T06:50:01.693Z,58
2018-07-05T06:50:21.847Z,57.5
2018-07-05T06:50:42.011Z,57.5
2018-07-05T06:51:02.198Z,57.3
2018-07-05T06:51:22.366Z,57.6
2018-07-05T06:51:42.531Z,57.3
2018-07-05T06:52:02.699Z,57.2
2018-07-05T06:52:22.860Z,57.7
2018-07-05T06:52:43.041Z,58
2018-07-05T06:53:03.926Z,58
2018-07-05T06:53:24.294Z,57.3
2018-07-05T06:53:44.451Z,57.8
2018-07-05T06:54:04.619Z,57.3
2018-07-05T06:54:24.800Z,57.1
2018-07-05T06:54:44.968Z,57.4
2018-07-05T06:55:05.126Z,57.3
2018-07-05T06:55:25.287Z,56.9
2018-07-05T06:55:45.443Z,56.5
2018-07-05T06:56:05.598Z,57
2018-07-05T06:56:25.782Z,56.8
2018-07-05T06:56:45.936Z,57.3
2018-07-05T06:57:06.094Z,56.2
2018-07-05T06:57:26.267Z,56.6
2018-07-05T06:57:46.397Z,56.1
2018-07-05T06:58:06.553Z,56.1
2018-07-05T06:58:26.716Z,56.7
2018-07-05T06:58:46.906Z,57.4
2018-07-05T06:59:07.135Z,57.2
2018-07-05T06:59:27.274Z,56.6
2018-07-05T06:59:47.450Z,56.5
2018-07-05T07:00:07.605Z,56.1
2018-07-05T07:00:27.778Z,55.9
2018-07-05T07:00:47.945Z,55.9
2018-07-05T07:01:08.144Z,56.1
2018-07-05T07:01:28.288Z,56.7
2018-07-05T07:01:48.454Z,56.6
2018-07-05T07:02:08.631Z,56.6
2018-07-05T07:02:28.788Z,56.8
2018-07-05T07:02:48.965Z,57.4
2018-07-05T07:03:09.121Z,57
2018-07-05T07:03:29.283Z,57.1
2018-07-05T07:03:49.443Z,56.6
2018-07-05T07:04:09.576Z,56.6
2018-07-05T07:04:29.761Z,56.5
2018-07-05T07:04:49.941Z,56.4
2018-07-05T07:05:10.120Z,56.5
2018-07-05T07:05:30.274Z,56.6
2018-07-05T07:05:50.417Z,56.3
2018-07-05T07:06:10.576Z,55.7
2018-07-05T07:06:30.759Z,55.5
2018-07-05T07:06:50.944Z,55.5
2018-07-05T07:07:11.104Z,55.5
2018-07-05T07:07:31.257Z,55.9
2018-07-05T07:07:51.431Z,55.8
2018-07-05T07:08:11.614Z,56
2018-07-05T07:08:31.776Z,55.8
2018-07-05T07:08:51.940Z,56
2018-07-05T07:09:12.104Z,55.7
2018-07-05T07:09:32.286Z,55.7
2018-07-05T07:09:52.463Z,56
2018-07-05T07:10:12.630Z,56.1
2018-07-05T07:10:32.796Z,55.9
2018-07-05T07:10:52.957Z,56.4
2018-07-05T07:11:13.114Z,55.8
2018-07-05T07:11:33.282Z,55.6
2018-07-05T07:11:53.434Z,55.3
2018-07-05T07:12:13.639Z,55.3
2018-07-05T07:12:33.816Z,54.9
2018-07-05T07:12:54.001Z,55.6
2018-07-05T07:13:14.185Z,55.5
2018-07-05T07:13:34.361Z,56
2018-07-05T07:13:54.517Z,56.1
2018-07-05T07:14:14.673Z,56.7
2018-07-05T07:14:34.837Z,56.5
2018-07-05T07:14:55.004Z,56.2
2018-07-05T07:15:15.161Z,56.4
2018-07-05T07:15:35.316Z,56.4
2018-07-05T07:15:55.487Z,55.9
2018-07-05T07:16:15.666Z,55.7
2018-07-05T07:16:35.825Z,55.7
2018-07-05T07:16:56.006Z,55.6
2018-07-05T07:17:16.154Z,55.3
2018-07-05T07:17:36.306Z,55
2018-07-05T07:17:56.469Z,55.5
2018-07-05T07:18:16.626Z,55.2
2018-07-05T07:18:36.801Z,55.2
2018-07-05T07:18:56.980Z,56.4
2018-07-05T07:19:17.174Z,55.9
2018-07-05T07:19:37.356Z,55.5
2018-07-05T07:19:57.513Z,56
2018-07-05T07:20:17.687Z,56.5
2018-07-05T07:20:37.882Z,56.3
2018-07-05T07:20:58.031Z,56
2018-07-05T07:21:18.235Z,56.3
2018-07-05T07:21:38.539Z,55.9
2018-07-05T07:21:58.682Z,55.5
2018-07-05T07:22:18.824Z,55.4
2018-07-05T07:22:38.984Z,55.6
2018-07-05T07:22:59.152Z,55.2
2018-07-05T07:23:19.313Z,55.5
2018-07-05T07:23:39.458Z,55.5
2018-07-05T07:23:59.647Z,55.7
2018-07-05T07:24:19.809Z,55.9
2018-07-05T07:24:39.976Z,55.9
2018-07-05T07:25:00.147Z,55.5
2018-07-05T07:25:20.305Z,55.7
2018-07-05T07:25:40.494Z,55.7
2018-07-05T07:26:00.622Z,55.5
2018-07-05T07:26:20.762Z,55.5
2018-07-05T07:26:40.917Z,55.5
2018-07-05T07:27:01.093Z,55
2018-07-05T07:27:21.284Z,55.4
2018-07-05T07:27:41.457Z,55.6
2018-07-05T07:28:01.614Z,55.7
2018-07-05T07:28:21.775Z,55.8
2018-07-05T07:28:41.940Z,55.6
2018-07-05T07:29:02.142Z,55.5
2018-07-05T07:29:22.361Z,55.7
2018-07-05T07:29:42.530Z,55.8
2018-07-05T07:30:02.712Z,56.4
2018-07-05T07:30:22.874Z,56.3
2018-07-05T07:30:43.062Z,56.2
2018-07-05T07:31:03.264Z,56.5
2018-07-05T07:31:23.474Z,56.3
2018-07-05T07:31:43.725Z,56.4
2018-07-05T07:32:03.881Z,55.9
2018-07-05T07:32:24.053Z,55.8
2018-07-05T07:32:44.236Z,55.5
2018-07-05T07:33:04.403Z,55.9
2018-07-05T07:33:24.555Z,56
2018-07-05T07:33:44.741Z,55.8
2018-07-05T07:34:04.899Z,55.5
2018-07-05T07:34:25.062Z,55.4
2018-07-05T07:34:45.210Z,55.2
2018-07-05T07:35:05.366Z,55
2018-07-05T07:35:25.519Z,54.7
2018-07-05T07:35:45.691Z,54.5
2018-07-05T07:36:05.841Z,54.2
2018-07-05T07:36:26.007Z,54.7
2018-07-05T07:36:46.167Z,54.1
2018-07-05T07:37:06.309Z,53.9
2018-07-05T07:37:26.607Z,54.6
2018-07-05T07:37:46.747Z,54.6
2018-07-05T07:38:06.889Z,54.1
2018-07-05T07:38:27.069Z,54.4
2018-07-05T07:38:47.239Z,54.6
2018-07-05T07:39:07.397Z,54.1
2018-07-05T07:39:27.590Z,54.1
2018-07-05T07:39:47.716Z,54
2018-07-05T07:40:07.885Z,54.5
2018-07-05T07:40:28.047Z,54.5
2018-07-05T07:40:48.206Z,54.5
2018-07-05T07:41:08.375Z,54.4
2018-07-05T07:41:28.529Z,54.8
2018-07-05T07:41:48.712Z,54.3
2018-07-05T07:42:08.876Z,54
2018-07-05T07:42:29.045Z,54.1
2018-07-05T07:42:49.263Z,53.2
2018-07-05T07:43:09.424Z,53.5
2018-07-05T07:43:29.617Z,53.3
2018-07-05T07:43:49.784Z,53.4
2018-07-05T07:44:09.970Z,53.7
2018-07-05T07:44:30.127Z,53.4
2018-07-05T07:44:50.291Z,53.2
2018-07-05T07:45:10.442Z,53.6
2018-07-05T07:45:30.858Z,53.3
2018-07-05T07:45:50.949Z,54.5
2018-07-05T07:46:11.105Z,55
2018-07-05T07:46:31.259Z,55.5
2018-07-05T07:46:51.423Z,55.2
2018-07-05T07:47:11.613Z,54.9
2018-07-05T07:47:31.768Z,54.8
2018-07-05T07:47:51.917Z,54.7
2018-07-05T07:48:12.107Z,54.8
2018-07-05T07:48:32.344Z,54
2018-07-05T07:48:52.509Z,53.2
2018-07-05T07:49:12.666Z,53.7
2018-07-05T07:49:32.842Z,53.1
2018-07-05T07:49:53.011Z,53.6
2018-07-05T07:50:13.222Z,53
2018-07-05T07:50:33.419Z,53.3
2018-07-05T07:50:53.569Z,53.6
2018-07-05T07:51:13.745Z,52.9
2018-07-05T07:51:33.910Z,52.8
2018-07-05T07:51:54.073Z,52.8
2018-07-05T07:52:14.211Z,52.2
2018-07-05T07:52:34.371Z,51.3
2018-07-05T07:52:54.512Z,50.7
2018-07-05T07:53:14.698Z,51.1
2018-07-05T07:53:34.829Z,51.3
2018-07-05T07:53:55.007Z,51.4
2018-07-05T07:54:15.172Z,51.3
2018-07-05T07:54:35.400Z,51
2018-07-05T07:54:55.564Z,50.9
2018-07-05T07:55:15.789Z,51.2
2018-07-05T07:55:35.952Z,51.5
2018-07-05T07:55:56.107Z,51.4
2018-07-05T07:56:16.320Z,51.3
2018-07-05T07:56:36.521Z,51.5
2018-07-05T07:56:56.692Z,51.8
2018-07-05T07:57:16.856Z,52.2
2018-07-05T07:57:37.064Z,51.7
2018-07-05T07:57:57.227Z,51.3
2018-07-05T07:58:17.403Z,50.8
2018-07-05T07:58:37.656Z,51
2018-07-05T07:58:57.853Z,50.8
2018-07-05T07:59:18.035Z,50.6
2018-07-05T07:59:38.280Z,51.1
2018-07-05T07:59:58.423Z,50.9
2018-07-05T08:00:18.631Z,50.9
2018-07-05T08:00:38.833Z,50
2018-07-05T08:00:59.026Z,49.9
2018-07-05T08:01:19.199Z,49.9
2018-07-05T08:01:39.367Z,50.8
2018-07-05T08:01:59.522Z,50.8
2018-07-05T08:02:19.676Z,50.3
2018-07-05T08:02:39.830Z,50.4
2018-07-05T08:02:59.978Z,50.2
2018-07-05T08:03:20.152Z,49.7
2018-07-05T08:03:40.310Z,49.6
2018-07-05T08:04:00.466Z,49.4
2018-07-05T08:04:20.609Z,48.9
2018-07-05T08:04:40.746Z,49.2
2018-07-05T08:05:00.921Z,49.4
2018-07-05T08:05:21.091Z,49.4
2018-07-05T08:05:41.287Z,49.3
2018-07-05T08:06:01.516Z,49.2
2018-07-05T08:06:21.663Z,48.8
2018-07-05T08:06:41.831Z,49
2018-07-05T08:07:02.028Z,49.4
2018-07-05T08:07:22.215Z,49.6
2018-07-05T08:07:42.516Z,49.6
2018-07-05T08:08:02.802Z,49.4
2018-07-05T08:08:23.013Z,49.3
2018-07-05T08:08:43.237Z,49.1
2018-07-05T08:09:03.403Z,49.4
2018-07-05T08:09:23.559Z,49.2
2018-07-05T08:09:43.712Z,48.8
2018-07-05T08:10:03.874Z,49.2
2018-07-05T08:10:24.047Z,49.3
2018-07-05T08:10:44.223Z,49.6
2018-07-05T08:11:04.382Z,48.8
2018-07-05T08:11:24.519Z,47.8
2018-07-05T08:11:44.682Z,47.4
2018-07-05T08:12:04.838Z,47.4
2018-07-05T08:12:25.049Z,47.4
2018-07-05T08:12:45.203Z,47.5
2018-07-05T08:13:05.350Z,47
2018-07-05T08:13:25.487Z,47.2
2018-07-05T08:13:45.772Z,47.2
2018-07-05T08:14:05.945Z,47.5
2018-07-05T08:14:26.122Z,47.4
2018-07-05T08:14:46.274Z,47.1
2018-07-05T08:15:06.650Z,47.1
2018-07-05T08:15:27.050Z,47.5
2018-07-05T08:15:47.208Z,47.6
2018-07-05T08:16:07.365Z,47.5
2018-07-05T08:16:27.582Z,47.2
2018-07-05T08:16:47.730Z,46.2
2018-07-05T08:17:07.891Z,45.2
2018-07-05T08:17:28.053Z,46.1
2018-07-05T08:17:48.271Z,46
2018-07-05T08:18:08.433Z,46.4
2018-07-05T08:18:28.565Z,45.1
2018-07-05T08:18:48.753Z,44.7
2018-07-05T08:19:08.921Z,43.3
2018-07-05T08:19:29.136Z,42.5
2018-07-05T08:19:49.290Z,42.7
2018-07-05T08:20:09.449Z,43.1
2018-07-05T08:20:29.613Z,43.3
2018-07-05T08:20:49.786Z,43.5
2018-07-05T08:21:09.965Z,43.6
2018-07-05T08:21:30.148Z,43.3
2018-07-05T08:21:50.346Z,44.5
2018-07-05T08:22:10.500Z,45.1
2018-07-05T08:22:30.662Z,44.8
2018-07-05T08:22:50.821Z,45.1
2018-07-05T08:23:10.981Z,45.1
2018-07-05T08:23:31.144Z,44.9
2018-07-05T08:23:51.302Z,44.6
2018-07-05T08:24:11.477Z,44.7
2018-07-05T08:24:31.631Z,44.7
2018-07-05T08:24:51.799Z,44.5
2018-07-05T08:25:11.977Z,44.4
2018-07-05T08:25:32.266Z,43.8
2018-07-05T08:25:52.411Z,44
2018-07-05T08:26:12.550Z,43.7
2018-07-05T08:26:32.693Z,43.4
2018-07-05T08:26:52.836Z,43.1
2018-07-05T08:27:13.024Z,43.3
2018-07-05T08:27:33.237Z,43.5
2018-07-05T08:27:53.358Z,43.5
2018-07-05T08:28:13.498Z,43.2
2018-07-05T08:28:33.654Z,43
2018-07-05T08:28:53.816Z,42.6
2018-07-05T08:29:13.972Z,42
2018-07-05T08:29:34.105Z,42.1
2018-07-05T08:29:54.278Z,41.9
2018-07-05T08:30:14.427Z,42.2
2018-07-05T08:30:34.582Z,42.1
2018-07-05T08:30:54.746Z,41.6
2018-07-05T08:31:14.933Z,41
2018-07-05T08:31:35.103Z,40.4
2018-07-05T08:31:55.294Z,41
2018-07-05T08:32:15.470Z,40.8
2018-07-05T08:32:35.626Z,41.4
2018-07-05T08:32:55.768Z,41.7
2018-07-05T08:33:15.945Z,41.6
2018-07-05T08:33:36.117Z,41.3
2018-07-05T08:33:56.278Z,41.1
2018-07-05T08:34:16.448Z,41.4
2018-07-05T08:34:36.603Z,41.4
2018-07-05T08:34:56.768Z,41.4
2018-07-05T08:35:16.999Z,41.5
2018-07-05T08:35:37.100Z,41.5
2018-07-05T08:35:57.304Z,41.8
2018-07-05T08:36:17.479Z,41.5
2018-07-05T08:36:37.695Z,41.4
2018-07-05T08:36:57.883Z,41.1
2018-07-05T08:37:18.081Z,41.3
2018-07-05T08:37:38.224Z,41.1
2018-07-05T08:37:58.497Z,40.2
2018-07-05T08:38:18.612Z,40
2018-07-05T08:38:38.793Z,39.7
2018-07-05T08:38:58.948Z,40.1
2018-07-05T08:39:19.121Z,40.1
2018-07-05T08:39:39.288Z,39.3
2018-07-05T08:39:59.460Z,39.2
2018-07-05T08:40:19.599Z,39
2018-07-05T08:40:39.775Z,38.9
2018-07-05T08:40:59.929Z,38.9
2018-07-05T08:41:20.108Z,38.8
2018-07-05T08:41:40.273Z,38.8
2018-07-05T08:42:00.425Z,38.8
2018-07-05T08:42:20.589Z,38.4
2018-07-05T08:42:40.777Z,38.4
2018-07-05T08:43:00.978Z,38.4
2018-07-05T08:43:21.184Z,38.4
2018-07-05T08:43:41.361Z,38.1
2018-07-05T08:44:01.604Z,38
2018-07-05T08:44:21.758Z,37.9
2018-07-05T08:44:41.973Z,36.9
2018-07-05T08:45:02.052Z,36.1
2018-07-05T08:45:22.226Z,36
2018-07-05T08:45:42.404Z,36.3
2018-07-05T08:46:02.614Z,36.4
2018-07-05T08:46:22.803Z,36.3
2018-07-05T08:46:43.042Z,36.8
2018-07-05T08:47:03.193Z,37.6
2018-07-05T08:47:23.373Z,37.9
2018-07-05T08:47:43.535Z,38.1
2018-07-05T08:48:03.711Z,38.3
2018-07-05T08:48:23.854Z,38.3
2018-07-05T08:48:44.076Z,38
2018-07-05T08:49:04.409Z,37.3
2018-07-05T08:49:24.541Z,37.2
2018-07-05T08:49:44.728Z,37.4
2018-07-05T08:50:04.893Z,37.4
2018-07-05T08:50:25.049Z,37.3
2018-07-05T08:50:45.273Z,37.2
2018-07-05T08:51:05.511Z,36.8
2018-07-05T08:51:25.699Z,36.9
2018-07-05T08:51:45.870Z,35.9
2018-07-05T08:52:06.046Z,36.3
2018-07-05T08:52:26.233Z,36.2
2018-07-05T08:52:46.411Z,35.8
2018-07-05T08:53:06.643Z,35
2018-07-05T08:53:26.848Z,34.7
2018-07-05T08:53:47.026Z,35
2018-07-05T08:54:07.211Z,35.1
2018-07-05T08:54:27.404Z,35.3
2018-07-05T08:54:47.580Z,35.4
2018-07-05T08:55:07.773Z,35.6
2018-07-05T08:55:27.977Z,35.2
2018-07-05T08:55:48.140Z,35.1
2018-07-05T08:56:08.311Z,34.9
2018-07-05T08:56:28.479Z,34.4
2018-07-05T08:56:48.649Z,34.2
2018-07-05T08:57:08.834Z,34.6
2018-07-05T08:57:29.084Z,33.4
2018-07-05T08:57:49.235Z,32.5
2018-07-05T08:58:09.414Z,32.8
2018-07-05T08:58:29.608Z,33.1
2018-07-05T08:58:49.798Z,33.1
2018-07-05T08:59:09.991Z,33.6
2018-07-05T08:59:30.161Z,33.3
2018-07-05T08:59:50.271Z,33.1
2018-07-05T09:00:10.442Z,33.6
2018-07-05T09:00:30.635Z,33.6
2018-07-05T09:00:50.774Z,33.4
2018-07-05T09:01:10.924Z,33
2018-07-05T09:01:31.096Z,32.9
2018-07-05T09:01:51.319Z,33.5
2018-07-05T09:02:11.505Z,33.1
2018-07-05T09:02:31.746Z,33.2
2018-07-05T09:02:51.922Z,32.8
2018-07-05T09:03:12.100Z,31.3
2018-07-05T09:03:32.299Z,31.1
2018-07-05T09:03:52.495Z,30.9
2018-07-05T09:04:12.658Z,30.6
2018-07-05T09:04:32.785Z,30.8
2018-07-05T09:04:52.958Z,31.2
2018-07-05T09:05:13.117Z,31.3
2018-07-05T09:05:33.253Z,30.7
2018-07-05T09:05:53.412Z,30.5
2018-07-05T09:06:13.586Z,30.6
2018-07-05T09:06:33.748Z,31.2
2018-07-05T09:06:53.898Z,32
2018-07-05T09:07:14.059Z,31.8
2018-07-05T09:07:34.208Z,31.8
2018-07-05T09:07:54.373Z,31.9
2018-07-05T09:08:14.541Z,32.6
2018-07-05T09:08:34.688Z,33.1
2018-07-05T09:08:54.855Z,33
2018-07-05T09:09:15.024Z,33.2
2018-07-05T09:09:35.187Z,33.6
2018-07-05T09:09:55.380Z,33.7
2018-07-05T09:10:15.526Z,33.5
2018-07-05T09:10:35.724Z,33.9